Time;durP1;ratioP1;P1;durP2;ratioP2;P2;SDS_P1;SDS_P2;PMS_P1;PMS_P2;Temp;Humidity;BMP_temperature;BMP_pressure;BME280_temperature;BME280_humidity;BME280_pressure;Samples;Min_cycle;Max_cycle;Signal;HPM_P1;HPM_P2
2023/06/07 00:03:01;;;;;;;3.58;2.10;;;;;;;;;;12993233;19;20442;-66
2023/06/07 00:07:20;;;;;;;2.35;1.90;;;;;;;;;;12991453;19;20023;-66
2023/06/07 00:11:38;;;;;;;6.03;2.15;;;;;;;;;;12990561;19;20014;-65
2023/06/07 00:15:56;;;;;;;4.22;2.28;;;;;;;;;;12991117;19;20026;-66
2023/06/07 00:20:14;;;;;;;2.72;1.75;;;;;;;;;;12990496;19;20018;-65
2023/06/07 00:24:34;;;;;;;2.10;1.90;;;;;;;;;;12992298;19;20022;-67
2023/06/07 00:28:52;;;;;;;3.13;2.08;;;;;;;;;;12991212;19;20127;-65
2023/06/07 00:33:10;;;;;;;2.83;2.05;;;;;;;;;;12990438;19;20470;-66
2023/06/07 00:37:29;;;;;;;3.65;1.83;;;;;;;;;;12991595;19;20010;-66
2023/06/07 00:41:48;;;;;;;3.00;1.83;;;;;;;;;;12991267;19;20022;-65
2023/06/07 00:46:06;;;;;;;2.80;2.22;;;;;;;;;;12989835;19;20489;-65
2023/06/07 00:50:24;;;;;;;3.20;2.20;;;;;;;;;;12990432;19;20014;-65
2023/06/07 00:54:42;;;;;;;2.55;1.77;;;;;;;;;;12988429;19;20010;-65
2023/06/07 00:59:02;;;;;;;4.40;2.40;;;;;;;;;;12970000;19;20352;-67
2023/06/07 01:03:22;;;;;;;6.47;2.33;;;;;;;;;;12991239;19;20049;-65
2023/06/07 01:07:44;;;;;;;3.88;2.15;;;;;;;;;;12986352;19;20035;-65
2023/06/07 01:12:06;;;;;;;4.38;2.55;;;;;;;;;;12985910;19;20006;-65
2023/06/07 01:16:25;;;;;;;6.68;2.63;;;;;;;;;;12985767;19;20449;-64
2023/06/07 01:20:51;;;;;;;3.28;2.20;;;;;;;;;;12987811;19;20143;-65
2023/06/07 01:25:10;;;;;;;4.57;2.42;;;;;;;;;;12985563;19;20022;-64
2023/06/07 01:29:30;;;;;;;3.63;2.30;;;;;;;;;;12987864;19;20013;-65
2023/06/07 01:33:49;;;;;;;3.70;2.45;;;;;;;;;;12985365;19;20019;-65
2023/06/07 01:38:07;;;;;;;3.38;2.33;;;;;;;;;;12985524;19;20031;-65
2023/06/07 01:42:27;;;;;;;3.10;2.03;;;;;;;;;;12986203;19;20015;-66
2023/06/07 01:46:47;;;;;;;4.82;2.88;;;;;;;;;;12985693;19;20028;-64
2023/06/07 01:51:04;;;;;;;4.18;2.30;;;;;;;;;;12984857;19;20047;-65
2023/06/07 01:55:23;;;;;;;;;;;;;;;;;;12986786;19;20026;-65
2023/06/07 02:00:10;;;;;;;6.13;2.47;;;;;;;;;;12983105;19;20229;-64
2023/06/07 02:04:32;;;;;;;3.33;2.35;;;;;;;;;;12985804;19;20014;-64
2023/06/07 02:08:54;;;;;;;8.55;2.42;;;;;;;;;;12984205;19;20021;-67
2023/06/07 02:13:14;;;;;;;2.92;2.35;;;;;;;;;;12982850;19;20018;-65
2023/06/07 02:17:33;;;;;;;3.03;2.40;;;;;;;;;;12982559;19;20015;-64
2023/06/07 02:21:51;;;;;;;2.83;2.50;;;;;;;;;;12981199;19;20139;-65
2023/06/07 02:26:10;;;;;;;4.15;2.50;;;;;;;;;;12983112;19;20132;-65
2023/06/07 02:30:28;;;;;;;6.03;2.45;;;;;;;;;;12983559;19;20015;-65
2023/06/07 02:34:47;;;;;;;4.55;2.60;;;;;;;;;;12983267;19;20026;-68
2023/06/07 02:39:07;;;;;;;4.40;3.05;;;;;;;;;;12981137;19;20003;-65
2023/06/07 02:43:26;;;;;;;5.38;2.90;;;;;;;;;;12983258;19;20010;-66
2023/06/07 02:47:45;;;;;;;4.22;2.58;;;;;;;;;;12982435;19;20469;-66
2023/06/07 02:52:04;;;;;;;3.85;2.83;;;;;;;;;;12982304;19;20018;-66
2023/06/07 02:56:29;;;;;;;3.83;2.65;;;;;;;;;;12982822;19;20038;-66
2023/06/07 03:00:49;;;;;;;3.75;2.95;;;;;;;;;;12981917;19;20013;-66
2023/06/07 03:05:08;;;;;;;3.78;2.63;;;;;;;;;;12981641;19;20015;-66
2023/06/07 03:09:26;;;;;;;6.18;3.10;;;;;;;;;;12982009;19;20308;-66
2023/06/07 03:13:43;;;;;;;5.25;2.95;;;;;;;;;;12980584;19;20381;-66
2023/06/07 03:18:03;;;;;;;3.90;2.65;;;;;;;;;;12980088;19;20018;-66
2023/06/07 03:22:22;;;;;;;7.13;3.05;;;;;;;;;;12979978;19;20099;-66
2023/06/07 03:26:41;;;;;;;4.18;2.70;;;;;;;;;;12980574;19;20019;-66
2023/06/07 03:31:00;;;;;;;5.55;3.15;;;;;;;;;;12980452;19;20021;-66
2023/06/07 03:35:18;;;;;;;3.97;2.80;;;;;;;;;;12991054;19;20043;-66
2023/06/07 03:39:37;;;;;;;4.55;2.83;;;;;;;;;;12992187;19;20030;-66
2023/06/07 03:43:56;;;;;;;6.78;2.80;;;;;;;;;;12993229;19;20019;-66
2023/06/07 03:48:14;;;;;;;5.57;3.35;;;;;;;;;;12991810;19;20015;-66
2023/06/07 03:52:34;;;;;;;4.05;2.90;;;;;;;;;;12991989;19;20015;-66
2023/06/07 03:56:51;;;;;;;3.25;2.63;;;;;;;;;;12992787;19;20010;-67
2023/06/07 04:01:09;;;;;;;4.35;3.28;;;;;;;;;;12990669;19;20027;-66
2023/06/07 04:05:27;;;;;;;4.13;2.95;;;;;;;;;;12990229;19;20011;-66
2023/06/07 04:09:45;;;;;;;4.88;2.78;;;;;;;;;;12991734;19;20478;-65
2023/06/07 04:14:04;;;;;;;3.75;2.78;;;;;;;;;;12990560;19;20014;-65
2023/06/07 04:18:22;;;;;;;5.68;2.67;;;;;;;;;;12990827;19;20390;-66
2023/06/07 04:22:43;;;;;;;2.97;2.08;;;;;;;;;;12990282;19;20021;-65
2023/06/07 04:27:01;;;;;;;3.33;2.55;;;;;;;;;;12989979;19;20302;-66
2023/06/07 04:31:22;;;;;;;;;;;;;;;;;;12990815;19;20048;-66
2023/06/07 04:35:43;;;;;;;4.57;2.33;;;;;;;;;;12990325;19;19923;-66
2023/06/07 04:40:01;;;;;;;3.88;2.40;;;;;;;;;;12989910;19;20508;-66
2023/06/07 04:44:28;;;;;;;4.70;2.85;;;;;;;;;;12989037;19;20014;-65
2023/06/07 04:48:47;;;;;;;3.83;2.63;;;;;;;;;;12989933;19;20023;-64
2023/06/07 04:53:05;;;;;;;3.08;2.10;;;;;;;;;;12989101;19;20433;-64
2023/06/07 04:57:23;;;;;;;4.95;2.85;;;;;;;;;;12989381;19;20397;-65
2023/06/07 05:01:41;;;;;;;4.65;2.70;;;;;;;;;;12988520;19;20367;-64
2023/06/07 05:06:00;;;;;;;4.30;2.97;;;;;;;;;;12987916;19;20014;-64
2023/06/07 05:10:19;;;;;;;2.80;2.15;;;;;;;;;;12988037;19;20043;-65
2023/06/07 05:14:38;;;;;;;5.00;2.40;;;;;;;;;;12987691;19;20048;-64
2023/06/07 05:18:56;;;;;;;3.85;2.17;;;;;;;;;;12987815;19;20457;-64
2023/06/07 05:23:17;;;;;;;2.80;2.30;;;;;;;;;;12986450;19;20018;-64
2023/06/07 05:27:37;;;;;;;3.67;2.72;;;;;;;;;;12987522;19;20007;-64
2023/06/07 05:31:54;;;;;;;4.82;2.83;;;;;;;;;;12986869;19;20025;-64
2023/06/07 05:36:13;;;;;;;4.03;2.38;;;;;;;;;;12986299;19;20015;-64
2023/06/07 05:40:32;;;;;;;3.90;2.13;;;;;;;;;;12987177;19;20478;-64
2023/06/07 05:44:51;;;;;;;3.75;2.75;;;;;;;;;;12986942;19;20010;-65
2023/06/07 05:49:09;;;;;;;3.17;2.10;;;;;;;;;;12986479;19;20026;-66
2023/06/07 05:53:27;;;;;;;2.92;2.25;;;;;;;;;;12986453;19;20014;-65
2023/06/07 05:57:45;;;;;;;;;;;;;;;;;;12984055;19;20015;-64
2023/06/07 06:02:04;;;;;;;2.95;2.08;;;;;;;;;;12984193;19;19957;-65
2023/06/07 06:06:23;;;;;;;4.03;2.25;;;;;;;;;;12985479;19;20023;-66
2023/06/07 06:10:44;;;;;;;3.22;1.98;;;;;;;;;;12985224;19;20019;-66
2023/06/07 06:15:03;;;;;;;2.70;2.08;;;;;;;;;;12983391;19;20018;-65
2023/06/07 06:19:21;;;;;;;4.18;2.58;;;;;;;;;;12984618;19;20620;-65
2023/06/07 06:23:40;;;;;;;2.47;1.90;;;;;;;;;;12984114;19;20010;-65
2023/06/07 06:27:58;;;;;;;3.00;2.20;;;;;;;;;;12983927;19;20018;-65
2023/06/07 06:32:16;;;;;;;;;;;;;;;;;;12983813;19;20015;-66
2023/06/07 06:36:34;;;;;;;3.60;2.20;;;;;;;;;;12984208;19;19928;-64
2023/06/07 06:40:52;;;;;;;4.18;2.13;;;;;;;;;;12982884;19;20010;-66
2023/06/07 06:45:11;;;;;;;2.70;1.75;;;;;;;;;;12982344;19;20007;-65
2023/06/07 06:49:30;;;;;;;3.28;2.13;;;;;;;;;;12982788;19;20588;-65
2023/06/07 06:53:47;;;;;;;4.95;2.55;;;;;;;;;;12983248;19;20015;-66
2023/06/07 06:58:05;;;;;;;3.10;2.20;;;;;;;;;;12981900;19;20026;-66
2023/06/07 07:02:23;;;;;;;4.63;2.42;;;;;;;;;;12981024;19;20018;-65
2023/06/07 07:06:41;;;;;;;3.60;2.42;;;;;;;;;;12981064;19;20010;-65
2023/06/07 07:10:59;;;;;;;;;;;;;;;;;;12982152;19;20007;-65
2023/06/07 07:15:18;;;;;;;2.38;1.95;;;;;;;;;;12980688;19;19919;-65
2023/06/07 07:19:39;;;;;;;4.05;2.30;;;;;;;;;;12981424;19;20026;-65
2023/06/07 07:23:57;;;;;;;3.08;2.20;;;;;;;;;;12982329;19;20356;-65
2023/06/07 07:28:16;;;;;;;2.75;2.17;;;;;;;;;;12980350;19;20010;-66
2023/06/07 07:32:34;;;;;;;3.63;2.30;;;;;;;;;;12980232;19;20035;-66
2023/06/07 07:36:53;;;;;;;2.30;1.70;;;;;;;;;;12980436;19;20014;-66
2023/06/07 07:41:14;;;;;;;4.55;2.22;;;;;;;;;;12979051;19;20039;-65
2023/06/07 07:45:32;;;;;;;4.88;1.98;;;;;;;;;;12980390;19;20031;-65
2023/06/07 07:49:51;;;;;;;3.25;1.67;;;;;;;;;;12979729;19;20011;-65
2023/06/07 07:54:09;;;;;;;2.95;2.00;;;;;;;;;;12978785;19;20513;-66
2023/06/07 07:58:27;;;;;;;;;;;;;;;;;;12980518;19;20018;-65
2023/06/07 08:02:45;;;;;;;;;;;;;;;;;;12979982;19;19914;-65
2023/06/07 08:07:03;;;;;;;3.45;2.03;;;;;;;;;;12979377;19;19939;-65
2023/06/07 08:11:23;;;;;;;3.00;2.05;;;;;;;;;;12979487;19;20390;-65
2023/06/07 08:15:46;;;;;;;3.90;2.28;;;;;;;;;;12978649;19;20018;-65
2023/06/07 08:20:07;;;;;;;4.10;2.33;;;;;;;;;;12983160;19;20011;-64
2023/06/07 08:24:25;;;;;;;2.90;2.20;;;;;;;;;;12991145;19;20380;-65
2023/06/07 08:28:43;;;;;;;3.45;2.10;;;;;;;;;;12990327;19;20023;-66
2023/06/07 08:33:01;;;;;;;3.92;2.42;;;;;;;;;;12990566;19;20011;-65
2023/06/07 08:37:20;;;;;;;5.75;2.28;;;;;;;;;;12989710;19;20010;-65
2023/06/07 08:41:39;;;;;;;3.72;1.85;;;;;;;;;;12989211;19;20397;-66
2023/06/07 08:46:04;;;;;;;3.55;1.92;;;;;;;;;;12990283;19;20014;-65
2023/06/07 08:50:22;;;;;;;2.60;1.77;;;;;;;;;;12989105;19;20541;-65
2023/06/07 08:54:45;;;;;;;2.28;1.52;;;;;;;;;;12987952;19;20011;-65
2023/06/07 08:59:04;;;;;;;3.85;2.40;;;;;;;;;;12987768;19;20019;-65
2023/06/07 09:03:22;;;;;;;3.15;2.00;;;;;;;;;;12988866;19;20018;-66
2023/06/07 09:07:42;;;;;;;2.30;1.77;;;;;;;;;;12988833;19;20010;-64
2023/06/07 09:12:04;;;;;;;1.95;1.75;;;;;;;;;;12986093;19;20014;-65
2023/06/07 09:16:22;;;;;;;3.55;1.60;;;;;;;;;;12987266;19;20339;-65
2023/06/07 09:20:40;;;;;;;1.90;1.48;;;;;;;;;;12987537;19;20002;-65
2023/06/07 09:25:06;;;;;;;;;;;;;;;;;;12987450;19;20024;-65
2023/06/07 09:29:28;;;;;;;2.10;1.38;;;;;;;;;;12987733;19;19925;-65
2023/06/07 09:33:46;;;;;;;2.63;1.17;;;;;;;;;;12987786;19;20044;-65
2023/06/07 09:38:06;;;;;;;3.75;2.38;;;;;;;;;;12986866;19;20015;-65
2023/06/07 09:42:24;;;;;;;2.30;1.58;;;;;;;;;;12987031;19;20060;-65
2023/06/07 09:46:44;;;;;;;1.60;1.17;;;;;;;;;;12985640;19;20275;-65
2023/06/07 09:51:03;;;;;;;2.90;1.52;;;;;;;;;;12984679;19;20016;-65
2023/06/07 09:55:27;;;;;;;3.95;2.15;;;;;;;;;;12984540;19;20002;-64
2023/06/07 10:00:00;;;;;;;1.48;1.30;;;;;;;;;;12986035;19;20018;-65
2023/06/07 10:04:19;;;;;;;2.80;1.48;;;;;;;;;;12985158;19;20393;-65
2023/06/07 10:08:37;;;;;;;4.00;2.88;;;;;;;;;;12982805;19;20026;-65
2023/06/07 10:12:58;;;;;;;1.27;0.98;;;;;;;;;;12983659;19;20373;-65
2023/06/07 10:17:17;;;;;;;7.90;1.60;;;;;;;;;;12982631;19;20596;-65
2023/06/07 10:21:40;;;;;;;1.92;1.15;;;;;;;;;;12983500;19;20031;-66
2023/06/07 10:26:04;;;;;;;1.77;1.50;;;;;;;;;;12984318;19;20014;-65
2023/06/07 10:30:27;;;;;;;1.48;1.27;;;;;;;;;;12983662;19;20137;-65
2023/06/07 10:34:46;;;;;;;1.95;1.77;;;;;;;;;;12984927;19;20465;-65
2023/06/07 10:39:06;;;;;;;2.05;1.63;;;;;;;;;;12981355;19;20458;-65
2023/06/07 10:43:27;;;;;;;2.50;1.48;;;;;;;;;;12979874;19;20010;-64
2023/06/07 10:47:47;;;;;;;2.13;1.30;;;;;;;;;;12981779;19;20370;-65
2023/06/07 10:52:06;;;;;;;10.80;1.73;;;;;;;;;;12982631;19;20358;-65
2023/06/07 10:56:28;;;;;;;1.90;1.38;;;;;;;;;;12982565;19;20018;-66
2023/06/07 11:00:46;;;;;;;5.13;1.23;;;;;;;;;;12982729;19;20014;-66
2023/06/07 11:05:05;;;;;;;2.15;0.95;;;;;;;;;;12980135;19;20018;-66
2023/06/07 11:09:30;;;;;;;2.70;1.63;;;;;;;;;;12982955;19;20025;-65
2023/06/07 11:13:55;;;;;;;3.58;1.30;;;;;;;;;;12982220;19;20022;-65
2023/06/07 11:18:13;;;;;;;2.05;1.30;;;;;;;;;;12980975;19;20485;-65
2023/06/07 11:22:32;;;;;;;2.40;1.60;;;;;;;;;;12981948;19;20014;-65
2023/06/07 11:26:52;;;;;;;1.52;1.02;;;;;;;;;;12982259;19;20011;-66
2023/06/07 11:31:11;;;;;;;2.25;1.58;;;;;;;;;;12981232;19;20022;-64
2023/06/07 11:35:30;;;;;;;1.35;0.70;;;;;;;;;;12981422;19;20470;-65
2023/06/07 11:39:48;;;;;;;1.52;1.05;;;;;;;;;;12981275;19;20015;-66
2023/06/07 11:44:06;;;;;;;1.90;1.13;;;;;;;;;;12979022;19;20015;-64
2023/06/07 11:48:29;;;;;;;1.20;0.90;;;;;;;;;;12979751;19;20015;-67
2023/06/07 11:52:48;;;;;;;1.65;0.88;;;;;;;;;;12982349;19;20016;-65
2023/06/07 11:57:08;;;;;;;0.90;0.82;;;;;;;;;;12991804;19;20049;-65
2023/06/07 12:01:27;;;;;;;1.00;0.75;;;;;;;;;;12992673;19;20737;-65
2023/06/07 12:05:45;;;;;;;0.93;0.90;;;;;;;;;;12990091;19;20014;-65
2023/06/07 12:10:03;;;;;;;1.10;0.75;;;;;;;;;;12990616;19;20322;-66
2023/06/07 12:14:32;;;;;;;1.42;1.10;;;;;;;;;;12992553;19;20035;-66
2023/06/07 12:18:50;;;;;;;1.08;0.80;;;;;;;;;;12990794;19;20355;-66
2023/06/07 12:23:11;;;;;;;2.40;0.80;;;;;;;;;;12989454;19;20370;-66
2023/06/07 12:27:30;;;;;;;0.90;0.77;;;;;;;;;;12991831;19;20021;-66
2023/06/07 12:31:51;;;;;;;2.45;1.10;;;;;;;;;;12991361;19;20374;-66
2023/06/07 12:36:10;;;;;;;1.40;0.95;;;;;;;;;;12989969;19;20014;-66
2023/06/07 12:40:27;;;;;;;1.15;0.85;;;;;;;;;;12988862;19;20014;-65
2023/06/07 12:44:47;;;;;;;3.00;1.25;;;;;;;;;;12990310;19;20033;-65
2023/06/07 12:49:06;;;;;;;1.15;0.80;;;;;;;;;;12989080;19;20018;-65
2023/06/07 12:53:23;;;;;;;1.15;1.00;;;;;;;;;;12990367;19;20022;-65
2023/06/07 12:57:42;;;;;;;3.30;0.88;;;;;;;;;;12988722;19;20043;-65
2023/06/07 13:02:00;;;;;;;1.77;0.65;;;;;;;;;;12990648;19;20346;-65
2023/06/07 13:06:20;;;;;;;0.70;0.50;;;;;;;;;;12986395;19;20029;-65
2023/06/07 13:10:40;;;;;;;2.08;0.88;;;;;;;;;;12989481;19;20020;-65
2023/06/07 13:14:57;;;;;;;1.13;1.02;;;;;;;;;;12988613;19;20018;-65
2023/06/07 13:19:15;;;;;;;1.20;1.10;;;;;;;;;;12988128;19;20345;-65
2023/06/07 13:23:34;;;;;;;0.88;0.75;;;;;;;;;;12989633;19;20018;-65
2023/06/07 13:27:53;;;;;;;1.20;0.90;;;;;;;;;;12989066;19;20028;-66
2023/06/07 13:32:11;;;;;;;1.10;1.00;;;;;;;;;;12987742;19;20038;-65
2023/06/07 13:36:30;;;;;;;1.10;1.00;;;;;;;;;;12988006;19;20018;-64
2023/06/07 13:40:47;;;;;;;0.60;0.60;;;;;;;;;;12987696;19;20018;-63
2023/06/07 13:45:08;;;;;;;0.88;0.80;;;;;;;;;;12988136;19;20018;-63
2023/06/07 13:49:25;;;;;;;3.53;0.75;;;;;;;;;;12985583;19;20397;-64
2023/06/07 13:53:43;;;;;;;1.02;0.77;;;;;;;;;;12987407;19;20015;-66
2023/06/07 13:58:01;;;;;;;1.92;1.05;;;;;;;;;;12985097;19;20362;-66
2023/06/07 14:02:19;;;;;;;1.67;1.13;;;;;;;;;;12985962;19;20019;-64
2023/06/07 14:06:39;;;;;;;0.90;0.70;;;;;;;;;;12983785;19;20404;-65
2023/06/07 14:10:58;;;;;;;1.05;0.90;;;;;;;;;;12984181;19;20010;-64
2023/06/07 14:15:18;;;;;;;1.02;0.90;;;;;;;;;;12985065;19;20018;-65
2023/06/07 14:19:36;;;;;;;0.75;0.60;;;;;;;;;;12983996;19;20033;-64
2023/06/07 14:23:54;;;;;;;1.10;0.80;;;;;;;;;;12985410;19;20018;-64
2023/06/07 14:28:12;;;;;;;1.70;1.40;;;;;;;;;;12984916;19;20015;-64
2023/06/07 14:32:35;;;;;;;1.40;1.00;;;;;;;;;;12985631;19;20013;-64
2023/06/07 14:36:53;;;;;;;1.58;0.93;;;;;;;;;;12984572;19;20015;-64
2023/06/07 14:41:11;;;;;;;1.15;1.00;;;;;;;;;;12983414;19;20015;-64
2023/06/07 14:45:29;;;;;;;1.98;1.23;;;;;;;;;;12984097;19;20346;-64
2023/06/07 14:49:50;;;;;;;1.55;1.30;;;;;;;;;;12983389;19;20054;-64
2023/06/07 14:54:08;;;;;;;1.38;1.20;;;;;;;;;;12982875;19;20015;-64
2023/06/07 14:58:26;;;;;;;;;;;;;;;;;;12984215;19;20010;-64
2023/06/07 15:02:44;;;;;;;1.65;1.23;;;;;;;;;;12982886;19;19919;-64
2023/06/07 15:07:04;;;;;;;5.38;0.88;;;;;;;;;;12981908;19;20078;-64
2023/06/07 15:11:22;;;;;;;1.30;1.08;;;;;;;;;;12983387;19;20034;-64
2023/06/07 15:15:39;;;;;;;1.42;0.90;;;;;;;;;;12980665;19;20417;-64
2023/06/07 15:19:58;;;;;;;0.82;0.75;;;;;;;;;;12982909;19;20515;-64
2023/06/07 15:24:17;;;;;;;2.80;1.77;;;;;;;;;;12981123;19;20022;-65
2023/06/07 15:28:35;;;;;;;1.60;1.17;;;;;;;;;;12980648;19;20023;-64
2023/06/07 15:32:53;;;;;;;1.00;0.90;;;;;;;;;;12981496;19;20735;-65
2023/06/07 15:37:11;;;;;;;;;;;;;;;;;;12980726;19;20015;-65
2023/06/07 15:41:29;;;;;;;3.47;1.40;;;;;;;;;;12980366;19;19919;-64
2023/06/07 15:45:47;;;;;;;;;;;;;;;;;;12980746;19;20010;-65
2023/06/07 15:50:05;;;;;;;1.20;1.10;;;;;;;;;;12977847;19;20004;-65
2023/06/07 15:54:25;;;;;;;1.67;1.40;;;;;;;;;;12979891;19;20021;-65
2023/06/07 15:58:43;;;;;;;2.13;1.13;;;;;;;;;;12979891;19;20625;-64
2023/06/07 16:03:02;;;;;;;1.48;1.00;;;;;;;;;;12979722;19;20034;-67
2023/06/07 16:07:20;;;;;;;1.58;1.13;;;;;;;;;;12977016;19;20368;-65
2023/06/07 16:11:39;;;;;;;1.95;1.20;;;;;;;;;;12978563;19;20490;-65
2023/06/07 16:15:57;;;;;;;1.92;1.20;;;;;;;;;;12978086;19;20564;-65
2023/06/07 16:20:15;;;;;;;1.20;0.95;;;;;;;;;;12977753;19;20043;-66
2023/06/07 16:24:33;;;;;;;;;;;;;;;;;;12977954;19;20018;-64
2023/06/07 16:28:52;;;;;;;1.58;1.45;;;;;;;;;;12978763;19;19919;-64
2023/06/07 16:33:10;;;;;;;1.67;1.45;;;;;;;;;;12977830;19;20015;-66
2023/06/07 16:37:28;;;;;;;1.48;1.23;;;;;;;;;;12977835;19;20010;-64
2023/06/07 16:41:46;;;;;;;2.35;1.38;;;;;;;;;;12985448;19;20572;-65
2023/06/07 16:46:04;;;;;;;2.05;1.38;;;;;;;;;;12989249;19;20081;-65
2023/06/07 16:50:23;;;;;;;2.22;1.50;;;;;;;;;;12989183;19;20033;-64
2023/06/07 16:54:41;;;;;;;1.77;1.20;;;;;;;;;;12989574;19;20402;-65
2023/06/07 16:59:00;;;;;;;1.45;1.13;;;;;;;;;;12989485;19;20026;-65
2023/06/07 17:03:18;;;;;;;1.35;1.13;;;;;;;;;;12987611;19;20014;-65
2023/06/07 17:07:37;;;;;;;1.08;0.98;;;;;;;;;;12988619;19;20022;-65
2023/06/07 17:11:55;;;;;;;1.83;1.50;;;;;;;;;;12988475;19;20020;-65
2023/06/07 17:16:13;;;;;;;;;;;;;;;;;;12988045;19;20018;-64
2023/06/07 17:20:31;;;;;;;1.77;1.38;;;;;;;;;;12989167;19;19923;-64
2023/06/07 17:24:50;;;;;;;2.42;1.60;;;;;;;;;;12987673;19;20010;-65
2023/06/07 17:29:08;;;;;;;2.08;1.58;;;;;;;;;;12987346;19;20473;-65
2023/06/07 17:33:44;;;;;;;3.20;2.35;;;;;;;;;;12987360;19;20015;-64
2023/06/07 17:38:03;;;;;;;1.83;1.55;;;;;;;;;;12986223;19;20529;-65
2023/06/07 17:42:20;;;;;;;3.38;1.50;;;;;;;;;;12985721;19;20013;-66
2023/06/07 17:46:38;;;;;;;4.07;1.88;;;;;;;;;;12985880;19;20019;-65
2023/06/07 17:50:56;;;;;;;1.70;1.55;;;;;;;;;;12983440;19;20010;-65
2023/06/07 17:55:15;;;;;;;3.03;1.75;;;;;;;;;;12985886;19;20015;-64
2023/06/07 17:59:34;;;;;;;2.67;1.55;;;;;;;;;;12986516;19;20482;-65
2023/06/07 18:03:53;;;;;;;2.35;1.90;;;;;;;;;;12985176;19;20489;-65
2023/06/07 18:08:12;;;;;;;3.00;2.22;;;;;;;;;;12985067;19;20019;-65
2023/06/07 18:12:30;;;;;;;2.70;1.85;;;;;;;;;;12984830;19;20122;-64
2023/06/07 18:16:48;;;;;;;3.70;1.85;;;;;;;;;;12984173;19;20014;-64
2023/06/07 18:21:09;;;;;;;3.53;2.40;;;;;;;;;;12982137;19;20017;-65
2023/06/07 18:25:28;;;;;;;10.45;5.55;;;;;;;;;;12983629;19;20019;-65
2023/06/07 18:29:46;;;;;;;19.90;9.57;;;;;;;;;;12983831;19;20011;-64
2023/06/07 18:34:04;;;;;;;11.20;6.50;;;;;;;;;;12984328;19;20010;-65
2023/06/07 18:38:25;;;;;;;8.70;4.13;;;;;;;;;;12984356;19;20014;-64
2023/06/07 18:42:44;;;;;;;5.60;3.60;;;;;;;;;;12984047;19;20270;-64
2023/06/07 18:47:04;;;;;;;4.25;3.33;;;;;;;;;;12980481;19;20033;-67
2023/06/07 18:51:22;;;;;;;8.90;5.22;;;;;;;;;;12982915;19;20037;-64
2023/06/07 18:55:41;;;;;;;12.77;5.05;;;;;;;;;;12983101;19;20386;-64
2023/06/07 18:59:59;;;;;;;10.10;4.75;;;;;;;;;;12983002;19;20018;-65
2023/06/07 19:04:18;;;;;;;5.93;3.80;;;;;;;;;;12980319;19;20010;-64
2023/06/07 19:08:38;;;;;;;6.50;3.65;;;;;;;;;;12980728;19;20490;-64
2023/06/07 19:12:58;;;;;;;7.38;3.67;;;;;;;;;;12982440;19;20022;-64
2023/06/07 19:17:16;;;;;;;19.85;4.95;;;;;;;;;;12982380;19;20324;-64
2023/06/07 19:21:35;;;;;;;15.82;6.22;;;;;;;;;;12982435;19;20015;-66
2023/06/07 19:25:54;;;;;;;9.18;4.70;;;;;;;;;;12981250;19;20014;-64
2023/06/07 19:30:13;;;;;;;7.55;3.92;;;;;;;;;;12980353;19;20011;-64
2023/06/07 19:34:34;;;;;;;5.85;3.55;;;;;;;;;;12981196;19;20019;-64
2023/06/07 19:38:52;;;;;;;6.93;5.35;;;;;;;;;;12980466;19;20021;-65
2023/06/07 19:43:11;;;;;;;16.23;4.90;;;;;;;;;;12979449;19;20044;-65
2023/06/07 19:47:31;;;;;;;14.20;6.88;;;;;;;;;;12980425;19;20047;-65
2023/06/07 19:51:50;;;;;;;12.80;6.47;;;;;;;;;;12979916;19;20331;-65
2023/06/07 19:56:10;;;;;;;12.38;6.15;;;;;;;;;;12979264;19;20018;-64
2023/06/07 20:00:29;;;;;;;11.43;5.20;;;;;;;;;;12979945;19;20007;-65
2023/06/07 20:04:48;;;;;;;9.75;3.95;;;;;;;;;;12979875;19;20030;-65
2023/06/07 20:09:07;;;;;;;9.52;4.32;;;;;;;;;;12979093;19;20006;-65
2023/06/07 20:13:25;;;;;;;7.38;4.38;;;;;;;;;;12978796;19;20368;-66
2023/06/07 20:17:44;;;;;;;7.03;3.70;;;;;;;;;;12988400;19;20422;-64
2023/06/07 20:22:02;;;;;;;;;;;;;;;;;;12991428;19;20027;-64
2023/06/07 20:26:21;;;;;;;8.18;4.05;;;;;;;;;;12991078;19;20347;-65
2023/06/07 20:30:38;;;;;;;11.55;4.13;;;;;;;;;;12990903;19;20021;-64
2023/06/07 20:34:57;;;;;;;5.80;3.83;;;;;;;;;;12990749;19;20707;-64
2023/06/07 20:39:15;;;;;;;8.77;4.05;;;;;;;;;;12989099;19;20018;-65
2023/06/07 20:43:34;;;;;;;7.80;3.67;;;;;;;;;;12990416;19;20130;-64
2023/06/07 20:47:51;;;;;;;7.60;4.20;;;;;;;;;;12990011;19;20115;-65
2023/06/07 20:52:09;;;;;;;5.50;4.35;;;;;;;;;;12989306;19;20491;-65
2023/06/07 20:56:29;;;;;;;9.32;4.40;;;;;;;;;;12990255;19;20042;-65
2023/06/07 21:00:49;;;;;;;11.00;4.80;;;;;;;;;;12989994;19;20011;-65
2023/06/07 21:05:08;;;;;;;5.30;4.07;;;;;;;;;;12987499;19;20022;-65
2023/06/07 21:09:27;;;;;;;5.03;4.53;;;;;;;;;;12988908;19;20042;-65
2023/06/07 21:13:45;;;;;;;;;;;;;;;;;;12989136;19;20387;-64
2023/06/07 21:18:03;;;;;;;7.00;4.22;;;;;;;;;;12986660;19;19923;-65
2023/06/07 21:22:22;;;;;;;6.20;4.43;;;;;;;;;;12986211;19;20512;-65
2023/06/07 21:26:40;;;;;;;7.68;5.20;;;;;;;;;;12986727;19;20014;-64
2023/06/07 21:30:59;;;;;;;8.00;4.55;;;;;;;;;;12987577;19;20317;-64
2023/06/07 21:35:17;;;;;;;6.32;4.32;;;;;;;;;;12987607;19;20015;-65
2023/06/07 21:39:35;;;;;;;4.75;3.90;;;;;;;;;;12987587;19;20011;-65
2023/06/07 21:43:53;;;;;;;;;;;;;;;;;;12987293;19;20474;-65
2023/06/07 21:48:11;;;;;;;6.05;4.40;;;;;;;;;;12985095;19;19919;-65
2023/06/07 21:52:29;;;;;;;5.63;4.03;;;;;;;;;;12987473;19;20021;-64
2023/06/07 21:56:47;;;;;;;7.50;4.55;;;;;;;;;;12986280;19;20038;-64
2023/06/07 22:01:05;;;;;;;6.18;4.53;;;;;;;;;;12984373;19;20450;-64
2023/06/07 22:05:22;;;;;;;;;;;;;;;;;;12983612;19;20041;-64
2023/06/07 22:09:41;;;;;;;8.27;4.50;;;;;;;;;;12985502;19;19926;-65
2023/06/07 22:14:02;;;;;;;7.88;5.13;;;;;;;;;;12984740;19;20014;-65
2023/06/07 22:18:20;;;;;;;6.40;4.20;;;;;;;;;;12984199;19;20007;-65
2023/06/07 22:22:38;;;;;;;6.40;4.65;;;;;;;;;;12978407;19;20021;-64
2023/06/07 22:26:56;;;;;;;5.75;4.53;;;;;;;;;;12964626;19;20019;-64
2023/06/07 22:31:15;;;;;;;5.40;4.47;;;;;;;;;;12980755;19;20025;-64
2023/06/07 22:35:33;;;;;;;5.93;4.38;;;;;;;;;;12984712;19;20496;-64
2023/06/07 22:39:51;;;;;;;6.43;4.97;;;;;;;;;;12981609;19;20011;-65
2023/06/07 22:44:09;;;;;;;7.10;4.28;;;;;;;;;;12981029;19;20022;-65
2023/06/07 22:48:28;;;;;;;6.72;4.75;;;;;;;;;;12983579;19;20014;-66
2023/06/07 22:52:46;;;;;;;6.78;4.68;;;;;;;;;;12982752;19;20750;-65
2023/06/07 22:57:05;;;;;;;6.95;4.32;;;;;;;;;;12982016;19;20018;-64
2023/06/07 23:01:23;;;;;;;;;;;;;;;;;;12982520;19;20011;-64
2023/06/07 23:05:43;;;;;;;6.47;4.80;;;;;;;;;;12981396;19;19918;-64
2023/06/07 23:10:02;;;;;;;6.85;5.38;;;;;;;;;;12982389;19;20370;-67
2023/06/07 23:14:20;;;;;;;7.28;4.88;;;;;;;;;;12981859;19;20370;-66
2023/06/07 23:18:38;;;;;;;6.13;4.78;;;;;;;;;;12982269;19;20019;-65
2023/06/07 23:22:57;;;;;;;6.70;4.97;;;;;;;;;;12981592;19;20022;-65
2023/06/07 23:27:15;;;;;;;6.60;4.88;;;;;;;;;;12980389;19;20022;-65
2023/06/07 23:31:34;;;;;;;8.43;4.75;;;;;;;;;;12980643;19;20029;-64
2023/06/07 23:35:54;;;;;;;6.40;4.40;;;;;;;;;;12980513;19;20010;-65
2023/06/07 23:40:15;;;;;;;5.70;3.75;;;;;;;;;;12979561;19;20485;-64
2023/06/07 23:44:33;;;;;;;6.10;4.47;;;;;;;;;;12979555;19;20376;-65
2023/06/07 23:48:52;;;;;;;6.00;4.50;;;;;;;;;;12981778;19;20332;-63
2023/06/07 23:53:10;;;;;;;6.90;4.28;;;;;;;;;;12992205;19;20041;-63
2023/06/07 23:57:29;;;;;;;6.40;4.13;;;;;;;;;;12992723;19;20489;-65
